| time (UTC) | temp F | wind direction | speed MPH | gust MPH | rain 1hr in | rain 24hr in | rain mn in | humidity % | barometer mb |
| 20260508161556 | 40 | 303 | 3.0 | 8.0 | 0.00 | 0.76 | 0.01 | 97 | 1001.9 |
| 20260508160101 | 41 | 205 | 6.0 | 10.0 | 0.00 | 0.76 | 0.01 | 97 | 1001.8 |
| 20260508154555 | 40 | 205 | 6.0 | 10.0 | 0.00 | 0.76 | 0.01 | 98 | 1001.9 |
| 20260508153055 | 40 | 205 | 6.0 | 9.0 | 0.00 | 0.76 | 0.01 | 97 | 1001.8 |
| 20260508151554 | 40 | 205 | 3.0 | 8.0 | 0.00 | 0.76 | 0.01 | 98 | 1001.8 |
| 20260508150121 | 40 | 205 | 6.0 | 10.0 | 0.00 | 0.76 | 0.01 | 97 | 1002.1 |
| 20260508144601 | 41 | 296 | 7.0 | 11.0 | 0.00 | 0.76 | 0.01 | 97 | 1002.1 |
| 20260508143053 | 42 | 299 | 4.0 | 6.0 | 0.00 | 0.76 | 0.01 | 98 | 1002.1 |
| 20260508141600 | 42 | 336 | 3.0 | 8.0 | 0.00 | 0.76 | 0.01 | 97 | 1002.2 |
| 20260508140057 | 41 | 299 | 5.0 | 8.0 | 0.00 | 0.76 | 0.01 | 97 | 1002.6 |
| 20260508134550 | 42 | 205 | 4.0 | 6.0 | 0.00 | 0.76 | 0.01 | 97 | 1002.7 |
| 20260508133047 | 42 | 205 | 4.0 | 8.0 | 0.00 | 0.76 | 0.01 | 97 | 1002.5 |
| 20260508131550 | 41 | 205 | 2.0 | 5.0 | 0.00 | 0.76 | 0.01 | 98 | 1002.3 |
| 20260508130046 | 41 | 300 | 4.0 | 8.0 | 0.00 | 0.76 | 0.01 | 97 | 1002.1 |
| 20260508124545 | 42 | 308 | 5.0 | 8.0 | 0.00 | 0.76 | 0.01 | 97 | 1001.8 |
| 20260508123045 | 45 | 322 | 3.0 | 5.0 | 0.00 | 0.76 | 0.01 | 98 | 1001.9 |
| 20260508121547 | 44 | 205 | 1.0 | 4.0 | 0.00 | 0.76 | 0.01 | 98 | 1002.2 |
| 20260508120044 | 43 | 205 | 3.0 | 6.0 | 0.00 | 0.76 | 0.01 | 98 | 1002.2 |
| 20260508114543 | 42 | 205 | 1.0 | 4.0 | 0.00 | 0.76 | 0.01 | 97 | 1002.1 |
| 20260508113108 | 42 | 205 | 2.0 | 4.0 | 0.00 | 0.76 | 0.01 | 97 | 1002.3 |
| 20260508111542 | 42 | 342 | 3.0 | 5.0 | 0.00 | 0.76 | 0.01 | 97 | 1002.2 |
| 20260508110043 | 43 | 205 | 1.0 | 2.0 | 0.00 | 0.76 | 0.01 | 98 | 1002.5 |
| 20260508104553 | 42 | 205 | 0.0 | 0.0 | 0.00 | 0.76 | 0.01 | 98 | 1002.6 |
| 20260508103041 | 41 | 205 | 0.0 | 0.0 | 0.00 | 0.76 | 0.01 | 98 | 1002.6 |
| 20260508101543 | 41 | 205 | 0.0 | 0.0 | 0.00 | 0.76 | 0.01 | 98 | 1002.5 |
| 20260508100040 | 40 | 205 | 0.0 | 0.0 | 0.00 | 0.76 | 0.01 | 97 | 1002.3 |
| 20260508094537 | 40 | 205 | 0.0 | 3.0 | 0.00 | 0.76 | 0.01 | 97 | 1002.2 |
| 20260508093036 | 39 | 344 | 2.0 | 4.0 | 0.00 | 0.76 | 0.01 | 97 | 1002.2 |
| 20260508091534 | 40 | 344 | 1.0 | 4.0 | 0.00 | 0.76 | 0.01 | 96 | 1002.1 |
| 20260508090042 | 40 | 344 | 0.0 | 0.0 | 0.00 | 0.76 | 0.01 | 97 | 1002.0 |
| 20260508084530 | 41 | 344 | 2.0 | 4.0 | 0.00 | 0.76 | 0.01 | 96 | 1001.6 |
| 20260508083036 | 42 | 205 | 0.0 | 0.0 | 0.00 | 0.76 | 0.01 | 97 | 1001.5 |
| 20260508081527 | 42 | 205 | 0.0 | 0.0 | 0.00 | 0.76 | 0.01 | 97 | 1001.1 |
| 20260508080031 | 42 | 205 | 0.0 | 3.0 | 0.01 | 0.76 | 0.01 | 97 | 1001.5 |
| 20260508074524 | 42 | 205 | 2.0 | 4.0 | 0.01 | 0.76 | 0.01 | 97 | 1001.4 |
| 20260508073022 | 42 | 205 | 0.0 | 0.0 | 0.01 | 0.76 | 0.01 | 97 | 1001.5 |
| 20260508071524 | 42 | 205 | 0.0 | 0.0 | 0.01 | 0.76 | 0.01 | 96 | 1001.6 |
| 20260508070022 | 42 | 39 | 0.0 | 0.0 | 0.00 | 0.76 | 0.00 | 96 | 1001.7 |
| 20260508064546 | 43 | 205 | 0.0 | 0.0 | 0.00 | 0.76 | 0.00 | 96 | 1001.6 |
| 20260508063026 | 44 | 205 | 0.0 | 3.0 | 0.00 | 0.76 | 0.00 | 97 | 1001.4 |
| 20260508061519 | 44 | 205 | 2.0 | 4.0 | 0.00 | 0.76 | 0.00 | 97 | 1001.4 |
| 20260508060019 | 43 | 205 | 0.0 | 4.0 | 0.00 | 0.76 | 0.00 | 97 | 1001.3 |
| 20260508054526 | 43 | 205 | 0.0 | 3.0 | 0.00 | 0.76 | 0.00 | 96 | 1001.8 |
| 20260508053015 | 43 | 25 | 0.0 | 3.0 | 0.00 | 0.76 | 0.00 | 96 | 1002.0 |
| 20260508051523 | 43 | 205 | 1.0 | 3.0 | 0.00 | 0.76 | 0.00 | 96 | 1002.0 |
| 20260508050030 | 43 | 205 | 4.0 | 5.0 | 0.00 | 0.76 | 0.00 | 96 | 1001.8 |
| 20260508044512 | 43 | 350 | 1.0 | 2.0 | 0.00 | 0.76 | 0.00 | 96 | 1001.6 |
| 20260508043013 | 42 | 205 | 0.0 | 2.0 | 0.00 | 0.76 | 0.00 | 96 | 1001.7 |
| 20260508041509 | 43 | 205 | 3.0 | 8.0 | 0.00 | 0.76 | 0.00 | 96 | 1002.0 |
| 20260508040008 | 42 | 56 | 0.0 | 4.0 | 0.00 | 0.76 | 0.00 | 96 | 1002.0 |
| 20260508034519 | 41 | 205 | 2.0 | 8.0 | 0.00 | 0.76 | 0.00 | 95 | 1002.0 |
| 20260508033004 | 46 | 205 | 5.0 | 9.0 | 0.00 | 0.76 | 0.00 | 95 | 1002.1 |
| 20260508031607 | 48 | 62 | 0.0 | 0.0 | 0.00 | 0.76 | 0.00 | 96 | 1001.9 |
| 20260508030105 | 48 | 62 | 0.0 | 0.0 | 0.00 | 0.76 | 0.00 | 96 | 1001.9 |
| 20260508024556 | 48 | 205 | 1.0 | 5.0 | 0.00 | 0.76 | 0.76 | 96 | 1001.9 |
| 20260508023056 | 47 | 30 | 1.0 | 3.0 | 0.01 | 0.76 | 0.76 | 95 | 1001.8 |
| 20260508021603 | 47 | 205 | 0.0 | 3.0 | 0.02 | 0.76 | 0.76 | 96 | 1002.2 |
| 20260508020054 | 46 | 205 | 0.0 | 3.0 | 0.02 | 0.76 | 0.76 | 95 | 1002.3 |
| 20260508014553 | 46 | 205 | 0.0 | 3.0 | 0.03 | 0.76 | 0.76 | 95 | 1002.5 |
| 20260508013051 | 46 | 205 | 0.0 | 5.0 | 0.04 | 0.75 | 0.75 | 95 | 1002.6 |
| 20260508011555 | 47 | 205 | 0.0 | 3.0 | 0.06 | 0.74 | 0.74 | 95 | 1002.6 |
| 20260508010050 | 47 | 205 | 0.0 | 1.0 | 0.08 | 0.73 | 0.73 | 95 | 1002.5 |
| 20260508004550 | 47 | 205 | 0.0 | 0.0 | 0.11 | 0.72 | 0.72 | 94 | 1002.5 |
| 20260508003048 | 46 | 205 | 1.0 | 3.0 | 0.13 | 0.71 | 0.71 | 94 | 1002.5 |
| 20260508001547 | 47 | 205 | 3.0 | 6.0 | 0.11 | 0.69 | 0.69 | 94 | 1002.5 |
| 20260507234548 | 46 | 205 | 5.0 | 11.0 | 0.04 | 0.61 | 0.61 | 92 | 1002.2 |
| 20260507233041 | 50 | 205 | 4.0 | 10.0 | 0.01 | 0.57 | 0.57 | 92 | 1001.8 |
| 20260507231544 | 50 | 205 | 6.0 | 18.0 | 0.00 | 0.56 | 0.56 | 91 | 1001.6 |
| 20260507230035 | 56 | 205 | 9.0 | 18.0 | 0.00 | 0.56 | 0.56 | 88 | 1001.2 |
| 20260507224534 | 55 | 205 | 8.0 | 13.0 | 0.00 | 0.56 | 0.56 | 90 | 1000.6 |
| 20260507223034 | 55 | 205 | 8.0 | 15.0 | 0.00 | 0.56 | 0.56 | 89 | 1000.7 |
| 20260507221533 | 55 | 205 | 9.0 | 17.0 | 0.00 | 0.56 | 0.56 | 89 | 1000.7 |
| 20260507220032 | 55 | 205 | 11.0 | 19.0 | 0.00 | 0.56 | 0.56 | 89 | 1000.5 |
| 20260507214532 | 55 | 205 | 8.0 | 17.0 | 0.00 | 0.56 | 0.56 | 89 | 1000.5 |
| 20260507213038 | 55 | 205 | 12.0 | 21.0 | 0.00 | 0.56 | 0.56 | 90 | 1000.2 |
| 20260507211541 | 55 | 205 | 17.0 | 29.0 | 0.00 | 0.56 | 0.56 | 91 | 1000.2 |
| 20260507210029 | 54 | 205 | 15.0 | 24.0 | 0.01 | 0.56 | 0.56 | 91 | 1000.4 |
| 20260507204528 | 54 | 205 | 15.0 | 28.0 | 0.02 | 0.56 | 0.56 | 91 | 1000.4 |
| 20260507203026 | 55 | 205 | 15.0 | 24.0 | 0.08 | 0.56 | 0.56 | 92 | 1000.4 |
| 20260507201527 | 54 | 205 | 15.0 | 24.0 | 0.13 | 0.56 | 0.56 | 93 | 999.9 |
| 20260507200025 | 54 | 205 | 16.0 | 26.0 | 0.14 | 0.56 | 0.56 | 94 | 999.7 |
| 20260507194522 | 53 | 205 | 18.0 | 25.0 | 0.15 | 0.55 | 0.55 | 93 | 1000.5 |
| 20260507193021 | 53 | 205 | 17.0 | 26.0 | 0.14 | 0.50 | 0.50 | 93 | 1001.2 |
| 20260507191513 | 54 | 205 | 12.0 | 19.0 | 0.13 | 0.44 | 0.44 | 93 | 1002.6 |
| 20260507190016 | 54 | 205 | 13.0 | 20.0 | 0.17 | 0.43 | 0.43 | 93 | 1002.3 |
| 20260507184511 | 54 | 205 | 15.0 | 22.0 | 0.25 | 0.39 | 0.39 | 92 | 1002.7 |
| 20260507183011 | 54 | 205 | 16.0 | 23.0 | 0.34 | 0.35 | 0.35 | 93 | 1002.9 |
| 20260507181508 | 54 | 205 | 15.0 | 23.0 | 0.31 | 0.31 | 0.31 | 93 | 1003.3 |
| 20260507180006 | 54 | 205 | 13.0 | 20.0 | 0.25 | 0.25 | 0.25 | 92 | 1003.7 |
| 20260507174513 | 55 | 205 | 12.0 | 23.0 | 0.14 | 0.14 | 0.14 | 91 | 1004.0 |
| 20260507173101 | 56 | 205 | 18.0 | 27.0 | 0.02 | 0.02 | 0.02 | 89 | 1003.2 |
| 20260507171618 | 57 | 205 | 22.0 | 35.0 | 0.00 | 0.00 | 0.00 | 88 | 1002.4 |
| 20260507170058 | 57 | 205 | 16.0 | 34.0 | 0.00 | 0.00 | 0.00 | 86 | 1002.4 |
| 20260507164557 | 58 | 205 | 21.0 | 31.0 | 0.00 | 0.00 | 0.00 | 84 | 1002.6 |
| 20260507163054 | 59 | 205 | 22.0 | 42.0 | 0.00 | 0.00 | 0.00 | 82 | 1002.9 |